Villa Ridge, Mississippi
Current Conditions -  °F | °C
As of 1:53 PM on Thursday 23 Oct 2014 (Local Time) from KHBG Reporting Station
Clear Clear  
Wind Chill: 72°   Ceiling: Unl
Heat Index: 72°   Visibility: 10mi
Dew Point: 41°   Wind: 0mph
Humidity: 33%   Direction: NA
Pressure: 30.08"   Gusts: NA
Location:  31.0601°N, 89.4815°W
Report Text: KHBG 231853Z AUTO 00000KT 10SM CLR 22/05 A3008 RMK AO2 SLP184 T02220050
Loading
Personal Weather Stations






























Interactive Weather Map
Tropical Storm Tracking
New forecast layout! Learn more

10-Day Weather Forecast

Advertisements
Track Severe Weather on mobile